createdAt,value
2023-03-22T00:00:25.191Z,0.00
2023-03-22T00:01:25.178Z,0.00
2023-03-22T00:02:25.217Z,0.00
2023-03-22T00:03:25.199Z,0.00
2023-03-22T00:04:25.168Z,0.00
2023-03-22T00:05:25.179Z,0.00
2023-03-22T00:06:25.179Z,0.00
2023-03-22T00:07:25.185Z,0.00
2023-03-22T00:08:25.141Z,0.00
2023-03-22T00:09:25.163Z,0.00
2023-03-22T00:10:25.153Z,0.00
2023-03-22T00:11:25.145Z,0.00
2023-03-22T00:12:25.119Z,0.00
2023-03-22T00:13:25.113Z,0.00
2023-03-22T00:14:25.165Z,0.00
2023-03-22T00:15:25.128Z,0.00
2023-03-22T00:16:25.111Z,0.00
2023-03-22T00:17:25.088Z,0.00
2023-03-22T00:18:25.082Z,0.00
2023-03-22T00:19:25.112Z,0.00
2023-03-22T00:20:25.075Z,0.00
2023-03-22T00:21:25.050Z,0.00
2023-03-22T00:22:25.058Z,0.00
2023-03-22T00:23:25.060Z,0.00
2023-03-22T00:24:25.106Z,0.00
2023-03-22T00:25:25.093Z,0.00
2023-03-22T00:26:25.093Z,0.00
2023-03-22T00:27:25.034Z,0.00
2023-03-22T00:28:25.032Z,0.00
2023-03-22T00:29:25.055Z,0.00
2023-03-22T00:30:25.047Z,0.00
2023-03-22T00:31:25.049Z,0.00
2023-03-22T00:32:25.021Z,0.00
2023-03-22T00:33:24.995Z,0.00
2023-03-22T00:34:24.995Z,0.00
2023-03-22T00:35:25.074Z,0.00
2023-03-22T00:36:24.997Z,0.00
2023-03-22T00:37:24.975Z,0.00
2023-03-22T00:38:35.931Z,0.00
2023-03-22T00:39:27.022Z,0.00
2023-03-22T00:40:25.035Z,0.00
2023-03-22T00:41:24.987Z,0.00
2023-03-22T00:42:24.963Z,0.00
2023-03-22T00:43:24.956Z,0.00
2023-03-22T00:44:25.012Z,0.00
2023-03-22T00:45:24.949Z,0.00
2023-03-22T00:46:24.994Z,0.00
2023-03-22T00:47:24.953Z,0.00
2023-03-22T00:48:24.996Z,0.00
2023-03-22T00:49:24.920Z,0.00
2023-03-22T00:50:24.916Z,0.00
2023-03-22T00:51:24.954Z,0.00
2023-03-22T00:52:24.961Z,0.00
2023-03-22T00:53:24.944Z,0.00
2023-03-22T00:54:24.950Z,0.00
2023-03-22T00:55:24.932Z,0.00
2023-03-22T00:56:24.886Z,0.00
2023-03-22T00:57:24.905Z,0.00
2023-03-22T00:58:24.878Z,0.00
2023-03-22T00:59:24.920Z,0.00
2023-03-22T01:00:24.856Z,0.00
2023-03-22T01:01:24.913Z,0.00
2023-03-22T01:02:24.882Z,0.00
2023-03-22T01:03:24.896Z,0.00
2023-03-22T01:04:24.873Z,0.00
2023-03-22T01:05:24.816Z,0.00
2023-03-22T01:06:24.826Z,0.00
2023-03-22T01:07:24.837Z,0.00
2023-03-22T01:08:24.814Z,0.00
2023-03-22T01:09:24.856Z,0.00
2023-03-22T01:10:24.794Z,0.00
2023-03-22T01:11:24.791Z,0.00
2023-03-22T01:12:24.805Z,0.00
2023-03-22T01:13:24.852Z,0.00
2023-03-22T01:14:24.790Z,0.00
2023-03-22T01:15:24.804Z,0.00
2023-03-22T01:16:24.857Z,0.00
2023-03-22T01:17:24.780Z,0.00
2023-03-22T01:18:24.812Z,0.00
2023-03-22T01:19:24.775Z,0.00
2023-03-22T01:20:24.728Z,0.00
2023-03-22T01:21:24.737Z,0.00
2023-03-22T01:22:24.791Z,0.00
2023-03-22T01:23:24.700Z,0.00
2023-03-22T01:24:24.722Z,0.00
2023-03-22T01:25:24.736Z,0.00
2023-03-22T01:26:24.716Z,0.00
2023-03-22T01:27:24.698Z,0.00
2023-03-22T01:28:26.979Z,0.00
2023-03-22T01:29:24.699Z,0.00
2023-03-22T01:30:24.821Z,0.00
2023-03-22T01:31:24.672Z,0.00
2023-03-22T01:32:24.693Z,0.00
2023-03-22T01:33:24.672Z,0.00
2023-03-22T01:34:24.649Z,0.00
2023-03-22T01:35:24.688Z,0.00
2023-03-22T01:36:24.681Z,0.00
2023-03-22T01:37:24.646Z,0.00
2023-03-22T01:38:24.642Z,0.00
2023-03-22T01:39:24.627Z,0.00
2023-03-22T01:40:24.670Z,0.00
2023-03-22T01:41:24.662Z,0.00
2023-03-22T01:42:24.741Z,0.00
2023-03-22T01:43:24.599Z,0.00
2023-03-22T01:44:24.663Z,0.00
2023-03-22T01:45:24.647Z,0.00
2023-03-22T01:46:24.642Z,0.00
2023-03-22T01:47:24.578Z,0.00
2023-03-22T01:48:24.654Z,0.00
2023-03-22T01:49:24.682Z,0.00
2023-03-22T01:50:24.580Z,0.00
2023-03-22T01:51:24.586Z,0.00
2023-03-22T01:52:24.558Z,0.00
2023-03-22T01:53:24.548Z,0.00
2023-03-22T01:54:24.563Z,0.00
2023-03-22T01:55:24.530Z,0.00
2023-03-22T01:56:24.549Z,0.00
2023-03-22T01:57:24.551Z,0.00
2023-03-22T01:58:24.553Z,0.00
2023-03-22T01:59:24.572Z,0.00
2023-03-22T02:00:24.515Z,0.00
2023-03-22T02:01:24.554Z,0.00
2023-03-22T02:02:24.570Z,0.00
2023-03-22T02:03:24.480Z,0.00
2023-03-22T02:04:24.573Z,0.00
2023-03-22T02:05:24.483Z,0.00
2023-03-22T02:06:24.504Z,0.00
2023-03-22T02:07:24.501Z,0.00
2023-03-22T02:08:24.489Z,0.00
2023-03-22T02:09:24.477Z,0.00
2023-03-22T02:10:24.452Z,0.00
2023-03-22T02:11:24.491Z,0.00
2023-03-22T02:12:24.460Z,0.00
2023-03-22T02:13:24.438Z,0.00
2023-03-22T02:14:26.816Z,0.00
2023-03-22T02:15:24.435Z,0.00
2023-03-22T02:16:24.529Z,0.00
2023-03-22T02:17:24.414Z,0.00
2023-03-22T02:18:24.435Z,0.00
2023-03-22T02:19:24.405Z,0.00
2023-03-22T02:20:24.393Z,0.00
2023-03-22T02:21:24.404Z,0.00
2023-03-22T02:22:24.378Z,0.00
2023-03-22T02:23:24.444Z,0.00
2023-03-22T02:24:24.408Z,0.00
2023-03-22T02:25:24.348Z,0.00
2023-03-22T02:26:24.356Z,0.00
2023-03-22T02:27:24.351Z,0.00
2023-03-22T02:28:24.338Z,0.00
2023-03-22T02:29:24.426Z,0.00
2023-03-22T02:30:24.344Z,0.00
2023-03-22T02:31:24.395Z,0.00
2023-03-22T02:32:24.319Z,0.00
2023-03-22T02:33:24.337Z,0.00
2023-03-22T02:34:24.371Z,0.00
2023-03-22T02:35:24.337Z,0.00
2023-03-22T02:36:24.309Z,0.00
2023-03-22T02:37:24.295Z,0.00
2023-03-22T02:38:24.317Z,0.00
2023-03-22T02:39:24.270Z,0.00
2023-03-22T02:40:25.334Z,0.00
2023-03-22T02:41:24.308Z,0.00
2023-03-22T02:42:24.273Z,0.00
2023-03-22T02:43:24.305Z,0.00
2023-03-22T02:44:24.270Z,0.00
2023-03-22T02:45:24.346Z,0.00
2023-03-22T02:46:24.274Z,0.00
2023-03-22T02:47:24.269Z,0.00
2023-03-22T02:48:24.254Z,0.00
2023-03-22T02:49:24.236Z,0.00
2023-03-22T02:50:24.282Z,0.00
2023-03-22T02:51:24.260Z,0.00
2023-03-22T02:52:24.221Z,0.00
2023-03-22T02:53:24.235Z,0.00
2023-03-22T02:54:24.209Z,0.00
2023-03-22T02:55:24.186Z,0.00
2023-03-22T02:56:24.253Z,0.00
2023-03-22T02:57:24.228Z,0.00
2023-03-22T02:58:24.180Z,0.00
2023-03-22T02:59:24.187Z,0.00
2023-03-22T03:00:24.165Z,0.00
2023-03-22T03:01:24.266Z,0.00
2023-03-22T03:02:24.254Z,0.00
2023-03-22T03:03:24.161Z,0.00
2023-03-22T03:04:24.165Z,0.00
2023-03-22T03:05:24.149Z,0.00
2023-03-22T03:06:24.145Z,0.00
2023-03-22T03:07:24.188Z,0.00
2023-03-22T03:08:24.122Z,0.00
2023-03-22T03:09:24.120Z,0.00
2023-03-22T03:10:24.120Z,0.00
2023-03-22T03:11:24.136Z,0.00
2023-03-22T03:12:24.111Z,0.00
2023-03-22T03:13:24.101Z,0.00
2023-03-22T03:14:24.122Z,0.00
2023-03-22T03:15:24.104Z,0.00
2023-03-22T03:16:24.127Z,0.00
2023-03-22T03:17:24.133Z,0.00
2023-03-22T03:18:24.065Z,0.00
2023-03-22T03:19:24.057Z,0.00
2023-03-22T03:20:24.061Z,0.00
2023-03-22T03:21:25.142Z,0.00
2023-03-22T03:22:24.087Z,0.00
2023-03-22T03:23:24.044Z,0.00
2023-03-22T03:24:24.040Z,0.00
2023-03-22T03:25:24.037Z,0.00
2023-03-22T03:26:24.085Z,0.00
2023-03-22T03:27:24.146Z,0.00
2023-03-22T03:28:24.108Z,0.00
2023-03-22T03:29:24.013Z,0.00
2023-03-22T03:30:24.020Z,0.00
2023-03-22T03:31:24.084Z,0.00
2023-03-22T03:32:23.978Z,0.00
2023-03-22T03:33:24.026Z,0.00
2023-03-22T03:34:23.997Z,0.00
2023-03-22T03:35:24.008Z,0.00
2023-03-22T03:36:24.022Z,0.00
2023-03-22T03:37:23.998Z,0.00
2023-03-22T03:38:23.962Z,0.00
2023-03-22T03:39:23.967Z,0.00
2023-03-22T03:40:23.970Z,0.00
2023-03-22T03:41:23.935Z,0.00
2023-03-22T03:42:23.966Z,0.00
2023-03-22T03:43:23.924Z,0.00
2023-03-22T03:44:23.992Z,0.00
2023-03-22T03:45:23.902Z,0.00
2023-03-22T03:46:23.925Z,0.00
2023-03-22T03:47:23.938Z,0.00
2023-03-22T03:48:23.995Z,0.00
2023-03-22T03:49:23.927Z,0.00
2023-03-22T03:50:23.893Z,0.00
2023-03-22T03:51:23.909Z,0.00
2023-03-22T03:52:23.891Z,0.00
2023-03-22T03:53:23.910Z,0.00
2023-03-22T03:54:23.913Z,0.00
2023-03-22T03:55:23.900Z,0.00
2023-03-22T03:56:23.852Z,0.00
2023-03-22T03:57:23.832Z,0.00
2023-03-22T03:58:23.878Z,0.00
2023-03-22T03:59:23.860Z,0.00
2023-03-22T04:00:23.926Z,0.00
2023-03-22T04:01:23.879Z,0.00
2023-03-22T04:02:23.903Z,0.00
2023-03-22T04:03:23.854Z,0.00
2023-03-22T04:04:23.854Z,0.00
2023-03-22T04:05:23.844Z,0.00
2023-03-22T04:06:23.837Z,0.00
2023-03-22T04:07:23.802Z,0.00
2023-03-22T04:08:23.779Z,0.00
2023-03-22T04:09:23.912Z,0.00
2023-03-22T04:10:23.819Z,0.00
2023-03-22T04:11:23.804Z,0.00
2023-03-22T04:12:23.758Z,0.00
2023-03-22T04:13:23.758Z,0.00
2023-03-22T04:14:23.741Z,0.00
2023-03-22T04:15:23.777Z,0.00
2023-03-22T04:16:23.893Z,0.00
2023-03-22T04:17:23.747Z,0.00
2023-03-22T04:18:23.745Z,0.00
2023-03-22T04:19:23.713Z,0.00
2023-03-22T04:20:23.789Z,0.00
2023-03-22T04:21:23.722Z,0.00
2023-03-22T04:22:23.740Z,0.00
2023-03-22T04:23:24.518Z,0.00
2023-03-22T04:24:23.726Z,0.00
2023-03-22T04:25:23.694Z,0.00
2023-03-22T04:26:26.140Z,0.00
2023-03-22T04:27:23.678Z,0.00
2023-03-22T04:28:23.651Z,0.00
2023-03-22T04:29:23.667Z,0.00
2023-03-22T04:30:23.664Z,0.00
2023-03-22T04:31:23.698Z,0.00
2023-03-22T04:32:23.633Z,0.00
2023-03-22T04:33:23.761Z,0.00
2023-03-22T04:34:23.669Z,0.00
2023-03-22T04:35:23.686Z,0.00
2023-03-22T04:36:23.644Z,0.00
2023-03-22T04:37:23.642Z,0.00
2023-03-22T04:38:23.665Z,0.00
2023-03-22T04:39:23.624Z,0.00
2023-03-22T04:40:23.604Z,0.00
2023-03-22T04:41:23.593Z,0.00
2023-03-22T04:42:23.606Z,0.00
2023-03-22T04:43:23.624Z,0.00
2023-03-22T04:44:23.620Z,0.00
2023-03-22T04:45:23.573Z,0.00
2023-03-22T04:46:23.615Z,0.00
2023-03-22T04:47:23.604Z,0.00
2023-03-22T04:48:23.664Z,0.00
2023-03-22T04:49:23.558Z,0.00
2023-03-22T04:50:23.605Z,0.00
2023-03-22T04:51:23.562Z,0.00
2023-03-22T04:52:23.560Z,0.00
2023-03-22T04:53:23.570Z,0.00
2023-03-22T04:54:23.575Z,0.00
2023-03-22T04:55:23.608Z,0.00
2023-03-22T04:56:23.530Z,0.00
2023-03-22T04:57:23.507Z,0.00
2023-03-22T04:58:23.520Z,0.00
2023-03-22T04:59:23.590Z,0.00
2023-03-22T05:00:23.538Z,0.00
2023-03-22T05:01:23.555Z,0.00
2023-03-22T05:02:23.568Z,0.00
2023-03-22T05:03:23.510Z,0.00
2023-03-22T05:04:23.482Z,0.00
2023-03-22T05:05:23.619Z,0.00
2023-03-22T05:06:23.500Z,0.00
2023-03-22T05:07:23.469Z,0.00
2023-03-22T05:08:23.473Z,0.00
2023-03-22T05:09:23.734Z,0.00
2023-03-22T05:10:24.495Z,0.00
2023-03-22T05:11:23.473Z,0.00
2023-03-22T05:12:23.440Z,0.00
2023-03-22T05:13:23.448Z,0.00
2023-03-22T05:14:23.476Z,0.00
2023-03-22T05:15:23.482Z,0.00
2023-03-22T05:16:23.456Z,0.00
2023-03-22T05:17:23.444Z,0.00
2023-03-22T05:18:23.417Z,0.00
2023-03-22T05:19:23.391Z,0.00
2023-03-22T05:20:23.411Z,0.00
2023-03-22T05:21:23.377Z,0.00
2023-03-22T05:22:23.385Z,0.00
2023-03-22T05:23:23.392Z,0.00
2023-03-22T05:24:23.365Z,0.00
2023-03-22T05:25:23.385Z,0.00
2023-03-22T05:26:23.389Z,0.00
2023-03-22T05:27:23.380Z,0.00
2023-03-22T05:28:23.381Z,0.00
2023-03-22T05:29:23.361Z,0.00
2023-03-22T05:30:23.331Z,0.00
2023-03-22T05:31:23.404Z,0.00
2023-03-22T05:32:23.399Z,0.00
2023-03-22T05:33:23.354Z,0.00
2023-03-22T05:34:23.311Z,0.00
2023-03-22T05:35:23.319Z,0.00
2023-03-22T05:36:23.324Z,0.00
2023-03-22T05:37:23.315Z,0.00
2023-03-22T05:38:23.357Z,0.00
2023-03-22T05:39:23.300Z,0.00
2023-03-22T05:40:23.283Z,0.00
2023-03-22T05:41:23.482Z,0.00
2023-03-22T05:42:23.276Z,0.00
2023-03-22T05:43:23.333Z,0.00
2023-03-22T05:44:23.274Z,0.00
2023-03-22T05:45:23.276Z,0.00
2023-03-22T05:46:23.378Z,0.00
2023-03-22T05:47:23.258Z,0.00
2023-03-22T05:48:23.318Z,0.00
2023-03-22T05:49:23.254Z,0.00
2023-03-22T05:50:23.247Z,0.00
2023-03-22T05:51:23.245Z,0.00
2023-03-22T05:52:23.234Z,0.00
2023-03-22T05:53:23.235Z,0.00
2023-03-22T05:54:23.281Z,0.00
2023-03-22T05:55:23.217Z,0.00
2023-03-22T05:56:23.229Z,0.00
2023-03-22T05:57:23.221Z,0.00
2023-03-22T05:58:23.199Z,0.00
2023-03-22T05:59:23.218Z,0.00
2023-03-22T06:00:23.277Z,0.00
2023-03-22T06:01:23.217Z,5.62
2023-03-22T06:02:23.178Z,5.62
2023-03-22T06:03:23.219Z,5.62
2023-03-22T06:04:23.168Z,5.62
2023-03-22T06:05:23.189Z,5.62
2023-03-22T06:06:23.151Z,5.62
2023-03-22T06:07:23.177Z,5.62
2023-03-22T06:08:26.053Z,5.62
2023-03-22T06:09:23.171Z,5.62
2023-03-22T06:10:23.182Z,11.25
2023-03-22T06:11:23.128Z,11.25
2023-03-22T06:12:23.133Z,11.25
2023-03-22T06:13:23.194Z,11.25
2023-03-22T06:14:23.123Z,11.25
2023-03-22T06:15:23.152Z,16.88
2023-03-22T06:16:23.161Z,16.88
2023-03-22T06:17:23.109Z,16.88
2023-03-22T06:18:23.103Z,16.88
2023-03-22T06:19:23.083Z,22.50
2023-03-22T06:20:23.095Z,22.50
2023-03-22T06:21:23.099Z,16.88
2023-03-22T06:22:23.083Z,16.88
2023-03-22T06:23:23.060Z,16.88
2023-03-22T06:24:23.082Z,16.88
2023-03-22T06:25:23.073Z,16.88
2023-03-22T06:26:23.105Z,16.88
2023-03-22T06:27:23.174Z,22.50
2023-03-22T06:28:23.038Z,16.88
2023-03-22T06:29:23.059Z,22.50
2023-03-22T06:30:23.137Z,22.50
2023-03-22T06:31:23.043Z,16.88
2023-03-22T06:32:23.034Z,22.50
2023-03-22T06:33:23.050Z,22.50
2023-03-22T06:34:23.002Z,22.50
2023-03-22T06:35:23.071Z,28.12
2023-03-22T06:36:23.051Z,28.12
2023-03-22T06:37:22.999Z,28.12
2023-03-22T06:38:23.025Z,28.12
2023-03-22T06:39:23.005Z,28.12
2023-03-22T06:40:22.987Z,33.75
2023-03-22T06:41:22.974Z,33.75
2023-03-22T06:42:22.964Z,33.75
2023-03-22T06:43:22.987Z,45.00
2023-03-22T06:44:22.961Z,56.25
2023-03-22T06:45:22.951Z,73.12
2023-03-22T06:46:23.052Z,73.12
2023-03-22T06:47:22.969Z,67.50
2023-03-22T06:48:23.021Z,67.50
2023-03-22T06:49:22.950Z,67.50
2023-03-22T06:50:22.939Z,67.50
2023-03-22T06:51:22.939Z,67.50
2023-03-22T06:52:22.990Z,78.75
2023-03-22T06:53:22.938Z,78.75
2023-03-22T06:54:22.943Z,73.12
2023-03-22T06:55:22.967Z,50.62
2023-03-22T06:56:22.929Z,39.38
2023-03-22T06:57:22.899Z,39.38
2023-03-22T06:58:22.878Z,33.75
2023-03-22T06:59:22.897Z,33.75
2023-03-22T07:00:22.932Z,33.75
2023-03-22T07:01:22.961Z,28.12
2023-03-22T07:02:22.914Z,28.12
2023-03-22T07:03:22.907Z,28.12
2023-03-22T07:04:22.951Z,28.12
2023-03-22T07:05:22.897Z,28.12
2023-03-22T07:06:22.888Z,28.12
2023-03-22T07:07:22.884Z,28.12
2023-03-22T07:08:22.839Z,28.12
2023-03-22T07:09:22.907Z,28.12
2023-03-22T07:10:22.899Z,28.12
2023-03-22T07:11:22.855Z,33.75
2023-03-22T07:12:22.892Z,39.38
2023-03-22T07:13:22.872Z,45.00
2023-03-22T07:14:22.876Z,50.62
2023-03-22T07:15:22.859Z,56.25
2023-03-22T07:16:23.978Z,56.25
2023-03-22T07:17:22.953Z,67.50
2023-03-22T07:18:22.788Z,61.88
2023-03-22T07:19:22.805Z,67.50
2023-03-22T07:20:22.837Z,56.25
2023-03-22T07:21:22.816Z,50.62
2023-03-22T07:22:22.813Z,45.00
2023-03-22T07:23:22.801Z,45.00
2023-03-22T07:24:22.801Z,45.00
2023-03-22T07:25:22.837Z,39.38
2023-03-22T07:26:22.773Z,39.38
2023-03-22T07:27:22.800Z,39.38
2023-03-22T07:28:22.761Z,45.00
2023-03-22T07:29:22.766Z,45.00
2023-03-22T07:30:22.773Z,45.00
2023-03-22T07:31:22.777Z,45.00
2023-03-22T07:32:22.879Z,45.00
2023-03-22T07:33:22.747Z,39.38
2023-03-22T07:34:22.769Z,33.75
2023-03-22T07:35:24.983Z,33.75
2023-03-22T07:36:22.724Z,28.12
2023-03-22T07:37:22.685Z,28.12
2023-03-22T07:38:22.734Z,28.12
2023-03-22T07:39:22.704Z,28.12
2023-03-22T07:40:22.686Z,28.12
2023-03-22T07:41:22.704Z,28.12
2023-03-22T07:42:22.681Z,22.50
2023-03-22T07:43:22.728Z,22.50
2023-03-22T07:44:22.716Z,22.50
2023-03-22T07:45:22.731Z,22.50
2023-03-22T07:46:22.810Z,22.50
2023-03-22T07:47:39.581Z,22.50
2023-03-22T07:48:24.735Z,22.50
2023-03-22T07:49:22.690Z,28.12
2023-03-22T07:50:22.636Z,28.12
2023-03-22T07:51:22.647Z,28.12
2023-03-22T07:52:22.640Z,28.12
2023-03-22T07:53:22.653Z,28.12
2023-03-22T07:54:32.867Z,28.12
2023-03-22T07:55:24.640Z,28.12
2023-03-22T07:56:22.627Z,28.12
2023-03-22T07:57:22.620Z,28.12
2023-03-22T07:58:22.756Z,22.50
2023-03-22T07:59:22.661Z,28.12
2023-03-22T08:00:22.626Z,33.75
2023-03-22T08:01:22.615Z,39.38
2023-03-22T08:02:22.687Z,45.00
2023-03-22T08:03:22.586Z,45.00
2023-03-22T08:04:23.657Z,45.00
2023-03-22T08:05:22.618Z,45.00
2023-03-22T08:06:22.572Z,45.00
2023-03-22T08:07:22.656Z,50.62
2023-03-22T08:08:22.564Z,50.62
2023-03-22T08:09:22.610Z,56.25
2023-03-22T08:10:22.567Z,56.25
2023-03-22T08:11:22.554Z,67.50
2023-03-22T08:12:22.622Z,78.75
2023-03-22T08:13:23.423Z,67.50
2023-03-22T08:14:35.490Z,61.88
2023-03-22T08:15:24.558Z,50.62
2023-03-22T08:16:22.614Z,50.62
2023-03-22T08:17:22.600Z,45.00
2023-03-22T08:18:22.541Z,45.00
2023-03-22T08:19:22.545Z,39.38
2023-03-22T08:20:22.553Z,39.38
2023-03-22T08:21:22.504Z,33.75
2023-03-22T08:22:22.560Z,33.75
2023-03-22T08:23:31.629Z,33.75
2023-03-22T08:24:24.724Z,33.75
2023-03-22T08:25:22.499Z,39.38
2023-03-22T08:26:22.507Z,45.00
2023-03-22T08:27:22.607Z,45.00
2023-03-22T08:28:22.517Z,45.00
2023-03-22T08:29:22.514Z,39.38
2023-03-22T08:30:22.522Z,39.38
2023-03-22T08:31:22.680Z,39.38
2023-03-22T08:32:22.472Z,33.75
2023-03-22T08:33:22.592Z,33.75
2023-03-22T08:34:22.454Z,33.75
2023-03-22T08:35:22.502Z,33.75
2023-03-22T08:36:22.449Z,33.75
2023-03-22T08:37:22.484Z,33.75
2023-03-22T08:38:23.483Z,33.75
2023-03-22T08:39:22.436Z,45.00
2023-03-22T08:40:22.481Z,50.62
2023-03-22T08:41:22.444Z,50.62
2023-03-22T08:42:22.472Z,73.12
2023-03-22T08:43:22.509Z,73.12
2023-03-22T08:44:22.447Z,140.62
2023-03-22T08:45:22.417Z,95.62
2023-03-22T08:46:22.497Z,78.75
2023-03-22T08:47:22.393Z,67.50
2023-03-22T08:48:22.442Z,61.88
2023-03-22T08:49:22.483Z,56.25
2023-03-22T08:50:22.377Z,67.50
2023-03-22T08:51:22.405Z,56.25
2023-03-22T08:52:22.340Z,50.62
2023-03-22T08:53:22.345Z,50.62
2023-03-22T08:54:23.364Z,45.00
2023-03-22T08:55:22.348Z,61.88
2023-03-22T08:56:22.332Z,67.50
2023-03-22T08:57:22.335Z,67.50
2023-03-22T08:58:22.327Z,67.50
2023-03-22T08:59:22.321Z,56.25
2023-03-22T09:00:22.346Z,50.62
2023-03-22T09:01:22.435Z,45.00
2023-03-22T09:02:22.366Z,45.00
2023-03-22T09:03:22.506Z,45.00
2023-03-22T09:04:22.348Z,45.00
2023-03-22T09:05:22.349Z,39.38
2023-03-22T09:06:22.306Z,39.38
2023-03-22T09:07:22.355Z,45.00
2023-03-22T09:08:22.315Z,45.00
2023-03-22T09:09:22.264Z,45.00
2023-03-22T09:10:22.299Z,39.38
2023-03-22T09:11:22.266Z,39.38
2023-03-22T09:12:22.286Z,33.75
2023-03-22T09:13:22.247Z,28.12
2023-03-22T09:14:22.272Z,33.75
2023-03-22T09:15:22.269Z,33.75
2023-03-22T09:16:22.288Z,39.38
2023-03-22T09:17:22.611Z,45.00
2023-03-22T09:18:23.329Z,45.00
2023-03-22T09:19:22.208Z,50.62
2023-03-22T09:20:22.199Z,56.25
2023-03-22T09:21:22.217Z,73.12
2023-03-22T09:22:22.194Z,78.75
2023-03-22T09:23:22.219Z,78.75
2023-03-22T09:24:22.190Z,78.75
2023-03-22T09:25:22.212Z,78.75
2023-03-22T09:26:22.181Z,95.62
2023-03-22T09:27:22.184Z,95.62
2023-03-22T09:28:22.238Z,95.62
2023-03-22T09:29:22.251Z,95.62
2023-03-22T09:30:22.141Z,123.75
2023-03-22T09:31:22.197Z,123.75
2023-03-22T09:32:22.182Z,123.75
2023-03-22T09:33:22.187Z,84.38
2023-03-22T09:34:22.143Z,84.38
2023-03-22T09:35:22.171Z,73.12
2023-03-22T09:36:22.139Z,61.88
2023-03-22T09:37:22.095Z,67.50
2023-03-22T09:38:22.137Z,67.50
2023-03-22T09:39:22.100Z,73.12
2023-03-22T09:40:22.126Z,67.50
2023-03-22T09:41:22.103Z,67.50
2023-03-22T09:42:22.093Z,56.25
2023-03-22T09:43:22.077Z,50.62
2023-03-22T09:44:22.095Z,50.62
2023-03-22T09:45:22.106Z,50.62
2023-03-22T09:46:22.269Z,50.62
2023-03-22T09:47:22.081Z,50.62
2023-03-22T09:48:22.081Z,50.62
2023-03-22T09:49:22.072Z,56.25
2023-03-22T09:50:22.108Z,56.25
2023-03-22T09:51:22.007Z,56.25
2023-03-22T09:52:22.116Z,56.25
2023-03-22T09:53:22.060Z,56.25
2023-03-22T09:54:21.994Z,61.88
2023-03-22T09:55:21.983Z,56.25
2023-03-22T09:56:22.085Z,50.62
2023-03-22T09:57:21.976Z,50.62
2023-03-22T09:58:22.013Z,56.25
2023-03-22T09:59:21.975Z,67.50
2023-03-22T10:00:22.071Z,67.50
2023-03-22T10:01:22.199Z,67.50
2023-03-22T10:02:21.992Z,67.50
2023-03-22T10:03:21.941Z,73.12
2023-03-22T10:04:22.032Z,84.38
2023-03-22T10:05:21.924Z,73.12
2023-03-22T10:06:21.936Z,78.75
2023-03-22T10:07:21.921Z,67.50
2023-03-22T10:08:21.907Z,67.50
2023-03-22T10:09:21.905Z,67.50
2023-03-22T10:10:21.940Z,61.88
2023-03-22T10:11:21.925Z,61.88
2023-03-22T10:12:21.883Z,56.25
2023-03-22T10:13:21.873Z,56.25
2023-03-22T10:14:21.879Z,50.62
2023-03-22T10:15:21.900Z,50.62
2023-03-22T10:16:21.911Z,56.25
2023-03-22T10:17:21.920Z,50.62
2023-03-22T10:18:21.852Z,50.62
2023-03-22T10:19:21.861Z,50.62
2023-03-22T10:20:21.900Z,50.62
2023-03-22T10:21:21.928Z,56.25
2023-03-22T10:22:21.861Z,56.25
2023-03-22T10:23:21.810Z,61.88
2023-03-22T10:24:21.845Z,61.88
2023-03-22T10:25:21.808Z,61.88
2023-03-22T10:26:21.924Z,61.88
2023-03-22T10:27:21.835Z,67.50
2023-03-22T10:28:21.796Z,67.50
2023-03-22T10:29:21.776Z,61.88
2023-03-22T10:30:21.773Z,56.25
2023-03-22T10:31:21.790Z,56.25
2023-03-22T10:32:21.815Z,56.25
2023-03-22T10:33:21.811Z,56.25
2023-03-22T10:34:21.756Z,50.62
2023-03-22T10:35:21.799Z,50.62
2023-03-22T10:36:21.739Z,50.62
2023-03-22T10:37:21.728Z,50.62
2023-03-22T10:38:21.730Z,56.25
2023-03-22T10:39:21.787Z,56.25
2023-03-22T10:40:21.704Z,56.25
2023-03-22T10:41:21.711Z,61.88
2023-03-22T10:42:21.682Z,61.88
2023-03-22T10:43:21.714Z,61.88
2023-03-22T10:44:21.693Z,61.88
2023-03-22T10:45:21.669Z,61.88
2023-03-22T10:46:21.687Z,61.88
2023-03-22T10:47:21.670Z,67.50
2023-03-22T10:48:21.779Z,67.50
2023-03-22T10:49:21.670Z,73.12
2023-03-22T10:50:21.662Z,78.75
2023-03-22T10:51:21.636Z,73.12
2023-03-22T10:52:21.625Z,78.75
2023-03-22T10:53:21.642Z,78.75
2023-03-22T10:54:21.675Z,73.12
2023-03-22T10:55:21.645Z,78.75
2023-03-22T10:56:21.639Z,73.12
2023-03-22T10:57:21.642Z,78.75
2023-03-22T10:58:21.577Z,73.12
2023-03-22T10:59:21.631Z,73.12
2023-03-22T11:00:21.811Z,67.50
2023-03-22T11:01:21.641Z,67.50
2023-03-22T11:02:21.872Z,67.50
2023-03-22T11:03:21.581Z,67.50
2023-03-22T11:04:21.576Z,73.12
2023-03-22T11:05:21.556Z,73.12
2023-03-22T11:06:21.551Z,73.12
2023-03-22T11:07:21.543Z,73.12
2023-03-22T11:08:21.537Z,73.12
2023-03-22T11:09:21.577Z,73.12
2023-03-22T11:10:21.605Z,73.12
2023-03-22T11:11:21.506Z,73.12
2023-03-22T11:12:21.508Z,73.12
2023-03-22T11:13:21.506Z,84.38
2023-03-22T11:14:21.482Z,84.38
2023-03-22T11:15:21.518Z,90.00
2023-03-22T11:16:21.569Z,95.62
2023-03-22T11:17:21.452Z,95.62
2023-03-22T11:18:21.436Z,95.62
2023-03-22T11:19:21.446Z,95.62
2023-03-22T11:20:21.485Z,101.25
2023-03-22T11:21:21.450Z,112.50
2023-03-22T11:22:21.424Z,90.00
2023-03-22T11:23:21.403Z,118.12
2023-03-22T11:24:22.415Z,118.12
2023-03-22T11:25:21.392Z,118.12
2023-03-22T11:26:21.434Z,112.50
2023-03-22T11:27:21.379Z,112.50
2023-03-22T11:28:21.375Z,95.62
2023-03-22T11:29:21.381Z,95.62
2023-03-22T11:30:21.384Z,101.25
2023-03-22T11:31:21.410Z,95.62
2023-03-22T11:32:21.411Z,95.62
2023-03-22T11:33:21.358Z,101.25
2023-03-22T11:34:21.330Z,123.75
2023-03-22T11:35:21.424Z,146.25
2023-03-22T11:36:21.367Z,135.00
2023-03-22T11:37:21.398Z,118.12
2023-03-22T11:38:21.353Z,157.50
2023-03-22T11:39:21.293Z,146.25
2023-03-22T11:40:21.321Z,151.88
2023-03-22T11:41:21.296Z,157.50
2023-03-22T11:42:21.282Z,146.25
2023-03-22T11:43:21.310Z,106.88
2023-03-22T11:44:21.265Z,163.12
2023-03-22T11:45:21.262Z,168.75
2023-03-22T11:46:21.271Z,123.75
2023-03-22T11:47:21.242Z,174.38
2023-03-22T11:48:21.404Z,140.62
2023-03-22T11:49:21.234Z,112.50
2023-03-22T11:50:21.228Z,112.50
2023-03-22T11:51:21.216Z,106.88
2023-03-22T11:52:21.188Z,101.25
2023-03-22T11:53:21.236Z,106.88
2023-03-22T11:54:21.209Z,106.88
2023-03-22T11:55:21.189Z,106.88
2023-03-22T11:56:21.163Z,95.62
2023-03-22T11:57:21.180Z,101.25
2023-03-22T11:58:22.416Z,129.38
2023-03-22T11:59:21.181Z,101.25
2023-03-22T12:00:21.161Z,123.75
2023-03-22T12:01:21.118Z,157.50
2023-03-22T12:02:21.175Z,163.12
2023-03-22T12:03:21.275Z,174.38
2023-03-22T12:04:21.178Z,168.75
2023-03-22T12:05:21.239Z,146.25
2023-03-22T12:06:21.143Z,157.50
2023-03-22T12:07:21.086Z,135.00
2023-03-22T12:08:21.070Z,135.00
2023-03-22T12:09:21.107Z,146.25
2023-03-22T12:10:21.059Z,129.38
2023-03-22T12:11:21.095Z,123.75
2023-03-22T12:12:21.042Z,90.00
2023-03-22T12:13:21.039Z,78.75
2023-03-22T12:14:21.072Z,84.38
2023-03-22T12:15:21.055Z,78.75
2023-03-22T12:16:22.327Z,78.75
2023-03-22T12:17:21.013Z,73.12
2023-03-22T12:18:21.088Z,78.75
2023-03-22T12:19:21.012Z,73.12
2023-03-22T12:20:21.018Z,73.12
2023-03-22T12:21:20.988Z,78.75
2023-03-22T12:22:20.962Z,84.38
2023-03-22T12:23:20.992Z,90.00
2023-03-22T12:24:21.006Z,84.38
2023-03-22T12:25:20.966Z,90.00
2023-03-22T12:26:20.942Z,78.75
2023-03-22T12:27:20.960Z,78.75
2023-03-22T12:28:20.921Z,84.38
2023-03-22T12:29:20.928Z,90.00
2023-03-22T12:30:20.948Z,95.62
2023-03-22T12:31:20.947Z,106.88
2023-03-22T12:32:20.920Z,123.75
2023-03-22T12:33:20.953Z,123.75
2023-03-22T12:34:20.874Z,146.25
2023-03-22T12:35:20.960Z,157.50
2023-03-22T12:36:20.926Z,157.50
2023-03-22T12:37:20.849Z,146.25
2023-03-22T12:38:20.855Z,123.75
2023-03-22T12:39:20.837Z,112.50
2023-03-22T12:40:20.848Z,106.88
2023-03-22T12:41:20.863Z,90.00
2023-03-22T12:42:20.841Z,73.12
2023-03-22T12:43:20.821Z,67.50
2023-03-22T12:44:20.831Z,61.88
2023-03-22T12:45:20.792Z,61.88
2023-03-22T12:46:20.862Z,61.88
2023-03-22T12:47:20.777Z,61.88
2023-03-22T12:48:20.864Z,61.88
2023-03-22T12:49:20.808Z,61.88
2023-03-22T12:50:20.766Z,67.50
2023-03-22T12:51:20.765Z,67.50
2023-03-22T12:52:20.747Z,67.50
2023-03-22T12:53:20.734Z,73.12
2023-03-22T12:54:20.733Z,78.75
2023-03-22T12:55:20.714Z,90.00
2023-03-22T12:56:20.719Z,95.62
2023-03-22T12:57:20.729Z,101.25
2023-03-22T12:58:20.685Z,95.62
2023-03-22T12:59:20.753Z,101.25
2023-03-22T13:00:20.902Z,95.62
2023-03-22T13:01:20.716Z,101.25
2023-03-22T13:02:21.663Z,101.25